Time;durP1;ratioP1;P1;durP2;ratioP2;P2;SDS_P1;SDS_P2;PMS_P1;PMS_P2;Temp;Humidity;BMP_temperature;BMP_pressure;BME280_temperature;BME280_humidity;BME280_pressure;Samples;Min_cycle;Max_cycle;Signal;HPM_P1;HPM_P2
2023/03/15 00:01:17;;;;;;;6.55;3.38;;;20.60;68.20;;;;;;5035842;28;20533;-73
2023/03/15 00:03:43;;;;;;;8.93;3.53;;;20.60;68.10;;;;;;5036060;28;20028;-73
2023/03/15 00:06:10;;;;;;;11.60;3.50;;;20.60;68.10;;;;;;5053752;28;20412;-70
2023/03/15 00:08:36;;;;;;;6.72;3.20;;;20.60;68.10;;;;;;5036398;28;20032;-72
2023/03/15 00:11:02;;;;;;;10.52;3.45;;;20.60;68.30;;;;;;5048324;28;20031;-72
2023/03/15 00:13:29;;;;;;;12.02;3.58;;;20.60;68.20;;;;;;5051179;28;20021;-71
2023/03/15 00:15:58;;;;;;;10.75;3.95;;;20.50;68.10;;;;;;5036071;28;20432;-72
2023/03/15 00:18:24;;;;;;;10.52;3.60;;;20.60;68.20;;;;;;5054031;28;20025;-71
2023/03/15 00:20:51;;;;;;;8.02;3.17;;;20.50;67.70;;;;;;5053476;28;20381;-71
2023/03/15 00:23:16;;;;;;;7.70;3.20;;;20.50;68.10;;;;;;5017487;28;20484;-72
2023/03/15 00:25:44;;;;;;;8.80;3.63;;;20.50;67.90;;;;;;5035781;28;20028;-72
2023/03/15 00:28:10;;;;;;;13.95;3.90;;;20.50;68.60;;;;;;5047770;28;20473;-72
2023/03/15 00:30:36;;;;;;;11.25;3.55;;;20.50;68.20;;;;;;5029262;28;20024;-72
2023/03/15 00:33:04;;;;;;;11.25;3.50;;;20.50;68.20;;;;;;5027631;28;20026;-77
2023/03/15 00:35:34;;;;;;;13.57;3.05;;;20.50;67.00;;;;;;5035372;28;20112;-72
2023/03/15 00:38:00;;;;;;;;;;;20.10;59.00;;;;;;5035769;28;20443;-74
2023/03/15 00:40:26;;;;;;;13.38;3.53;;;20.10;55.50;;;;;;5042822;28;19908;-77
2023/03/15 00:42:51;;;;;;;11.05;2.88;;;20.10;58.00;;;;;;5039181;28;20077;-76
2023/03/15 00:45:19;;;;;;;18.88;3.08;;;20.10;57.80;;;;;;5045326;28;20029;-77
2023/03/15 00:47:53;;;;;;;9.55;2.90;;;20.10;59.40;;;;;;5051845;28;20020;-78
2023/03/15 00:50:21;;;;;;;14.60;3.15;;;20.20;60.00;;;;;;5053116;28;20020;-75
2023/03/15 00:52:47;;;;;;;10.93;2.97;;;20.20;60.50;;;;;;5035502;28;20022;-76
2023/03/15 00:55:14;;;;;;;10.88;3.45;;;20.20;60.70;;;;;;5042565;28;20044;-76
2023/03/15 00:57:42;;;;;;;12.82;4.03;;;20.30;61.10;;;;;;5018147;28;20037;-75
2023/03/15 01:00:14;;;;;;;10.88;3.35;;;20.30;61.30;;;;;;5035231;28;20497;-76
2023/03/15 01:02:40;;;;;;;14.35;3.97;;;20.30;61.40;;;;;;5051996;28;20032;-76
2023/03/15 01:05:08;;;;;;;14.50;4.00;;;20.30;61.60;;;;;;5033921;28;20033;-76
2023/03/15 01:07:34;;;;;;;14.45;4.55;;;20.40;61.80;;;;;;5053081;28;20025;-76
2023/03/15 01:10:02;;;;;;;24.80;5.93;;;20.40;62.00;;;;;;5035541;28;20037;-75
2023/03/15 01:12:31;;;;;;;17.52;5.30;;;20.30;62.60;;;;;;5018094;28;20308;-76
2023/03/15 01:14:58;;;;;;;20.48;6.20;;;20.30;62.80;;;;;;5035262;28;20025;-75
2023/03/15 01:17:23;;;;;;;22.85;6.53;;;20.30;63.00;;;;;;5034175;28;20039;-75
2023/03/15 01:19:50;;;;;;;21.33;6.25;;;20.40;63.30;;;;;;5035071;28;20026;-75
2023/03/15 01:22:18;;;;;;;21.45;6.55;;;20.40;63.40;;;;;;5050860;28;20086;-78
2023/03/15 01:24:44;;;;;;;24.05;7.13;;;20.40;63.40;;;;;;5052529;28;20481;-78
2023/03/15 01:27:11;;;;;;;21.70;6.43;;;20.40;63.40;;;;;;5018267;28;20074;-77
2023/03/15 01:29:37;;;;;;;28.85;9.77;;;20.40;63.50;;;;;;5035359;28;20036;-77
2023/03/15 01:32:04;;;;;;;24.90;7.05;;;20.40;63.50;;;;;;5017400;28;20481;-77
2023/03/15 01:34:30;;;;;;;27.25;7.93;;;20.40;63.60;;;;;;5049814;28;20094;-78
2023/03/15 01:36:55;;;;;;;27.67;9.82;;;20.40;63.80;;;;;;5034380;28;20029;-75
2023/03/15 01:39:27;;;;;;;36.05;10.27;;;20.30;63.70;;;;;;5011137;28;20025;-76
2023/03/15 01:41:52;;;;;;;22.83;8.20;;;20.40;64.00;;;;;;5011249;28;20029;-76
2023/03/15 01:44:19;;;;;;;37.63;11.27;;;20.30;63.90;;;;;;5042304;28;20102;-76
2023/03/15 01:46:47;;;;;;;38.50;10.80;;;20.40;63.60;;;;;;5041478;28;20021;-76
2023/03/15 01:49:30;;;;;;;37.50;11.77;;;20.40;63.80;;;;;;5034194;28;20518;-76
2023/03/15 01:52:01;;;;;;;32.88;9.90;;;20.40;63.80;;;;;;5041052;28;20025;-76
2023/03/15 01:54:46;;;;;;;31.95;10.93;;;20.30;63.80;;;;;;5023174;28;20098;-76
2023/03/15 01:57:17;;;;;;;33.50;9.73;;;20.30;63.60;;;;;;5041681;28;20100;-76
2023/03/15 02:00:06;;;;;;;35.90;10.70;;;20.30;63.80;;;;;;5033987;28;20051;-76
2023/03/15 02:02:45;;;;;;;32.33;10.60;;;20.30;63.50;;;;;;5032155;28;20059;-77
2023/03/15 02:05:22;;;;;;;31.30;10.50;;;20.40;63.40;;;;;;5029474;28;20017;-76
2023/03/15 02:07:49;;;;;;;33.58;10.60;;;20.30;63.40;;;;;;5024495;28;20037;-77
2023/03/15 02:10:39;;;;;;;33.20;10.18;;;20.40;63.70;;;;;;5030452;28;20029;-77
2023/03/15 02:13:06;;;;;;;31.98;9.70;;;20.40;63.50;;;;;;5014767;28;20032;-77
2023/03/15 02:15:32;;;;;;;33.60;9.63;;;20.30;63.70;;;;;;5046345;28;20029;-77
2023/03/15 02:18:02;;;;;;;31.13;9.57;;;20.30;63.50;;;;;;5042347;28;20096;-77
2023/03/15 02:20:44;;;;;;;30.80;10.50;;;20.40;63.70;;;;;;5051097;28;20126;-77
2023/03/15 02:23:21;;;;;;;28.73;9.40;;;20.40;63.60;;;;;;5049623;28;20078;-77
2023/03/15 02:26:19;;;;;;;32.33;9.63;;;20.40;63.60;;;;;;5034928;28;20481;-77
2023/03/15 02:28:45;;;;;;;35.88;10.93;;;20.30;63.60;;;;;;5011602;28;20098;-77
2023/03/15 02:31:12;;;;;;;31.13;10.88;;;20.30;63.70;;;;;;5023321;28;20488;-78
2023/03/15 02:33:44;;;;;;;31.65;10.13;;;20.40;63.70;;;;;;5020240;28;20053;-77
2023/03/15 02:36:22;;;;;;;30.45;10.43;;;20.30;63.80;;;;;;5034966;28;20029;-77
2023/03/15 02:38:49;;;;;;;36.03;10.38;;;20.30;63.70;;;;;;5029412;28;20032;-77
2023/03/15 02:41:31;;;;;;;33.22;10.60;;;20.40;63.80;;;;;;5025646;28;20044;-77
2023/03/15 02:44:02;;;;;;;32.80;10.27;;;20.40;63.90;;;;;;5027801;28;20104;-77
2023/03/15 02:46:28;;;;;;;32.00;9.90;;;20.40;63.80;;;;;;5022700;28;20040;-77
2023/03/15 02:48:54;;;;;;;29.70;10.13;;;20.30;63.70;;;;;;5041316;28;20021;-76
2023/03/15 02:51:23;;;;;;;31.25;9.98;;;20.30;63.80;;;;;;5030680;28;20018;-76
2023/03/15 02:53:49;;;;;;;;;;;20.30;63.60;;;;;;5033099;28;20484;-76
2023/03/15 02:56:15;;;;;;;32.45;9.80;;;20.30;63.70;;;;;;5039479;28;19966;-76
2023/03/15 02:58:45;;;;;;;32.10;9.90;;;20.30;63.60;;;;;;5039824;28;20029;-77
2023/03/15 03:01:13;;;;;;;27.02;9.02;;;20.30;63.60;;;;;;5041074;28;20040;-77
2023/03/15 03:03:41;;;;;;;31.70;9.93;;;20.30;63.60;;;;;;5038437;28;20055;-77
2023/03/15 03:06:08;;;;;;;32.50;9.88;;;20.30;63.70;;;;;;5031591;28;20437;-77
2023/03/15 03:08:36;;;;;;;31.70;10.25;;;20.30;63.60;;;;;;5019445;28;20362;-77
2023/03/15 03:11:04;;;;;;;30.05;9.98;;;20.30;63.50;;;;;;5031400;28;20528;-77
2023/03/15 03:13:30;;;;;;;26.70;8.82;;;20.30;63.40;;;;;;5013268;28;20156;-76
2023/03/15 03:15:58;;;;;;;24.60;8.45;;;20.30;63.40;;;;;;5010720;28;20553;-76
2023/03/15 03:18:29;;;;;;;26.45;8.55;;;20.30;63.50;;;;;;5034883;28;20048;-76
2023/03/15 03:20:56;;;;;;;27.90;8.30;;;20.30;63.40;;;;;;5042442;28;20029;-76
2023/03/15 03:23:24;;;;;;;23.95;8.27;;;20.30;63.40;;;;;;5024861;28;20032;-76
2023/03/15 03:25:55;;;;;;;22.67;8.30;;;20.30;63.40;;;;;;5031188;28;20068;-77
2023/03/15 03:28:26;;;;;;;25.15;7.72;;;20.30;63.40;;;;;;5043137;28;20017;-75
2023/03/15 03:30:53;;;;;;;26.55;8.15;;;20.30;63.40;;;;;;5036430;28;20029;-76
2023/03/15 03:33:20;;;;;;;25.88;8.25;;;20.30;63.40;;;;;;5028318;28;20021;-75
2023/03/15 03:35:47;;;;;;;25.25;8.10;;;20.30;63.40;;;;;;5038435;28;20028;-75
2023/03/15 03:38:14;;;;;;;23.60;8.10;;;20.30;63.30;;;;;;5044440;28;20029;-75
2023/03/15 03:40:45;;;;;;;25.65;8.00;;;20.30;63.30;;;;;;5013731;28;20028;-75
2023/03/15 03:43:10;;;;;;;23.73;7.65;;;20.20;63.30;;;;;;5042477;28;20047;-75
2023/03/15 03:45:36;;;;;;;23.13;7.70;;;20.20;63.30;;;;;;5036001;28;20560;-76
2023/03/15 03:48:02;;;;;;;22.90;8.02;;;20.20;63.30;;;;;;5044791;28;20057;-76
2023/03/15 03:50:31;;;;;;;24.70;7.60;;;20.20;63.30;;;;;;5038814;28;20100;-76
2023/03/15 03:52:57;;;;;;;22.13;8.25;;;20.20;63.20;;;;;;5058122;22;20025;-78
2023/03/15 03:55:29;;;;;;;23.30;7.57;;;20.20;63.20;;;;;;5010968;28;20042;-78
2023/03/15 03:57:54;;;;;;;24.83;7.68;;;20.20;63.20;;;;;;4998067;28;20088;-78
2023/03/15 04:00:36;;;;;;;22.33;7.60;;;20.20;63.20;;;;;;4990141;28;20036;-77
2023/03/15 04:03:03;;;;;;;21.02;7.95;;;20.20;63.20;;;;;;4979970;28;20401;-77
2023/03/15 04:05:33;;;;;;;23.08;7.68;;;20.20;63.20;;;;;;4987646;28;20034;-77
2023/03/15 04:07:59;;;;;;;21.55;7.60;;;20.20;63.10;;;;;;5014766;28;20024;-78
2023/03/15 04:10:28;;;;;;;20.80;7.18;;;20.20;63.20;;;;;;4979801;28;20486;-78
2023/03/15 04:12:57;;;;;;;23.10;7.55;;;20.20;63.10;;;;;;4976838;28;20062;-78
2023/03/15 04:15:24;;;;;;;22.30;7.13;;;20.20;63.00;;;;;;5012652;28;20117;-78
2023/03/15 04:17:57;;;;;;;21.52;7.25;;;20.20;63.00;;;;;;4994920;28;20556;-78
2023/03/15 04:20:27;;;;;;;18.73;6.60;;;20.20;63.00;;;;;;4996124;28;20437;-78
2023/03/15 04:22:53;;;;;;;23.02;7.65;;;20.20;62.90;;;;;;5010763;28;20124;-78
2023/03/15 04:25:30;;;;;;;19.85;6.43;;;20.20;62.90;;;;;;4996404;28;20052;-78
2023/03/15 04:28:10;;;;;;;19.67;7.22;;;20.20;62.90;;;;;;4996398;28;20095;-78
2023/03/15 04:30:45;;;;;;;20.90;6.72;;;20.20;63.40;;;;;;5013354;28;20026;-78
2023/03/15 04:33:25;;;;;;;19.75;6.65;;;20.20;62.80;;;;;;4995532;28;20036;-79
2023/03/15 04:36:17;;;;;;;19.90;6.55;;;20.10;62.80;;;;;;4996155;28;20381;-79
2023/03/15 04:39:08;;;;;;;20.55;6.70;;;20.20;62.80;;;;;;4980193;28;20061;-79
2023/03/15 04:41:53;;;;;;;18.77;6.43;;;20.10;62.70;;;;;;4996526;28;20030;-78
2023/03/15 04:44:42;;;;;;;21.50;6.63;;;20.20;62.80;;;;;;5003720;28;20390;-78
2023/03/15 04:47:37;;;;;;;17.80;6.30;;;20.10;62.80;;;;;;4969045;28;20078;-78
2023/03/15 04:50:22;;;;;;;17.48;6.28;;;20.10;62.80;;;;;;5013022;28;20367;-78
2023/03/15 04:53:08;;;;;;;20.55;6.60;;;20.10;62.60;;;;;;5001972;28;20036;-78
2023/03/15 04:55:45;;;;;;;19.58;6.55;;;20.20;62.70;;;;;;4995502;28;20175;-78
2023/03/15 04:58:17;;;;;;;17.35;6.05;;;20.20;62.70;;;;;;4996239;28;20032;-78
2023/03/15 05:01:01;;;;;;;17.33;6.30;;;20.20;62.60;;;;;;4994900;28;20025;-78
2023/03/15 05:03:46;;;;;;;20.63;6.72;;;20.20;62.90;;;;;;5012801;28;20405;-78
2023/03/15 05:06:17;;;;;;;18.77;6.60;;;20.20;62.70;;;;;;4989680;28;20129;-78
2023/03/15 05:09:00;;;;;;;14.40;5.22;;;20.30;62.50;;;;;;5019741;28;20033;-78
2023/03/15 05:11:45;;;;;;;18.42;6.22;;;20.30;62.70;;;;;;5005814;28;20390;-78
2023/03/15 05:14:31;;;;;;;17.98;5.68;;;20.30;62.60;;;;;;4994943;28;20028;-78
2023/03/15 05:17:21;;;;;;;14.18;5.72;;;20.30;62.60;;;;;;4990023;28;20038;-78
2023/03/15 05:20:12;;;;;;;16.70;5.68;;;20.40;62.50;;;;;;5000348;28;20033;-78
2023/03/15 05:23:03;;;;;;;13.50;5.47;;;20.40;62.40;;;;;;4988407;28;20029;-78
2023/03/15 05:25:40;;;;;;;14.10;5.45;;;20.40;62.30;;;;;;4992526;28;20034;-78
2023/03/15 05:28:22;;;;;;;16.45;5.60;;;20.40;62.20;;;;;;5002217;28;20022;-78
2023/03/15 05:31:08;;;;;;;14.05;5.05;;;20.40;62.00;;;;;;5010359;28;20438;-78
2023/03/15 05:34:03;;;;;;;16.13;5.38;;;20.50;62.10;;;;;;4997893;28;20025;-77
2023/03/15 05:36:30;;;;;;;14.05;5.75;;;20.50;62.10;;;;;;4994910;28;20028;-77
2023/03/15 05:39:16;;;;;;;16.00;5.75;;;20.50;62.10;;;;;;4989901;28;20474;-78
2023/03/15 05:42:00;;;;;;;15.10;5.10;;;20.50;62.00;;;;;;4993969;28;20034;-78
2023/03/15 05:44:47;;;;;;;12.63;4.60;;;20.50;62.00;;;;;;4991792;28;20092;-78
2023/03/15 05:47:39;;;;;;;15.00;5.35;;;20.50;61.90;;;;;;4996461;28;20112;-78
2023/03/15 05:50:14;;;;;;;14.73;5.20;;;20.50;61.90;;;;;;4993345;28;20034;-78
2023/03/15 05:53:06;;;;;;;15.93;5.55;;;20.50;62.00;;;;;;5000092;28;20041;-77
2023/03/15 05:55:39;;;;;;;16.23;5.95;;;20.50;61.90;;;;;;5008991;28;20401;-77
2023/03/15 05:58:15;;;;;;;13.93;5.10;;;20.50;61.90;;;;;;5012499;28;20033;-77
2023/03/15 06:01:00;;;;;;;14.82;5.07;;;20.50;61.90;;;;;;4985893;28;20121;-78
2023/03/15 06:03:45;;;;;;;15.13;4.97;;;20.50;61.90;;;;;;4995826;28;20025;-77
2023/03/15 06:06:18;;;;;;;14.18;4.82;;;20.40;61.80;;;;;;4977326;28;20234;-77
2023/03/15 06:08:44;;;;;;;13.55;4.72;;;20.50;61.90;;;;;;4997870;28;20022;-77
2023/03/15 06:11:10;;;;;;;12.90;5.18;;;20.40;61.90;;;;;;4975024;28;20172;-78
2023/03/15 06:13:37;;;;;;;14.23;5.72;;;20.40;61.80;;;;;;5012567;28;20013;-78
2023/03/15 06:16:08;;;;;;;12.30;4.63;;;20.40;61.80;;;;;;4977440;28;20486;-77
2023/03/15 06:18:38;;;;;;;12.73;5.22;;;20.40;61.90;;;;;;5002877;28;20041;-78
2023/03/15 06:21:04;;;;;;;13.55;5.03;;;20.50;61.80;;;;;;5011030;28;20025;-77
2023/03/15 06:23:30;;;;;;;12.85;4.68;;;20.40;61.70;;;;;;4993771;28;20040;-78
2023/03/15 06:25:56;;;;;;;12.73;4.90;;;20.40;61.70;;;;;;5007320;28;20040;-77
2023/03/15 06:28:22;;;;;;;12.35;4.72;;;20.40;61.70;;;;;;4994004;28;20026;-77
2023/03/15 06:30:53;;;;;;;13.07;5.05;;;20.50;61.70;;;;;;5009630;28;20017;-77
2023/03/15 06:33:25;;;;;;;13.30;4.75;;;20.40;61.60;;;;;;4989109;28;20029;-77
2023/03/15 06:35:50;;;;;;;12.73;4.82;;;20.40;61.60;;;;;;4993180;28;20037;-77
2023/03/15 06:38:17;;;;;;;13.00;5.18;;;20.50;61.60;;;;;;4980658;28;20040;-75
2023/03/15 06:40:42;;;;;;;12.38;4.43;;;20.50;61.60;;;;;;4976732;28;20026;-77
2023/03/15 06:43:12;;;;;;;13.82;5.20;;;20.50;61.60;;;;;;4992947;28;20036;-77
2023/03/15 06:45:39;;;;;;;9.73;4.15;;;20.40;61.60;;;;;;4976900;28;20029;-77
2023/03/15 06:48:05;;;;;;;10.80;4.40;;;20.40;61.50;;;;;;4996209;28;20084;-77
2023/03/15 06:50:31;;;;;;;15.25;4.95;;;20.40;61.50;;;;;;5001252;28;20664;-77
2023/03/15 06:52:58;;;;;;;11.15;4.85;;;20.40;61.50;;;;;;4987068;28;20080;-77
2023/03/15 06:55:25;;;;;;;12.02;4.38;;;20.40;61.60;;;;;;5008561;28;20490;-77
2023/03/15 06:57:51;;;;;;;12.73;4.68;;;20.40;61.50;;;;;;4991576;28;20036;-77
2023/03/15 07:00:17;;;;;;;11.77;4.90;;;20.40;61.50;;;;;;5011180;28;20061;-77
2023/03/15 07:02:43;;;;;;;13.10;4.65;;;20.40;61.40;;;;;;5010747;28;20073;-77
2023/03/15 07:05:09;;;;;;;12.05;5.03;;;20.40;61.40;;;;;;5008482;28;20034;-77
2023/03/15 07:07:35;;;;;;;12.38;4.53;;;20.40;61.40;;;;;;5007563;28;20036;-77
2023/03/15 07:10:01;;;;;;;11.60;4.45;;;20.40;61.40;;;;;;4997227;28;20022;-77
2023/03/15 07:12:27;;;;;;;10.95;4.60;;;20.40;61.30;;;;;;5009119;28;20080;-77
2023/03/15 07:14:52;;;;;;;13.10;4.55;;;20.40;61.40;;;;;;5005176;28;20026;-77
2023/03/15 07:17:18;;;;;;;14.60;4.93;;;20.40;61.40;;;;;;4992259;28;20030;-77
2023/03/15 07:19:44;;;;;;;14.60;5.32;;;20.40;61.40;;;;;;5011308;28;20101;-77
2023/03/15 07:22:10;;;;;;;10.02;4.60;;;20.40;61.30;;;;;;5008794;28;20026;-76
2023/03/15 07:24:35;;;;;;;12.10;4.80;;;20.40;61.20;;;;;;5010331;28;20019;-76
2023/03/15 07:27:01;;;;;;;12.57;4.60;;;20.40;61.20;;;;;;5009291;28;20026;-76
2023/03/15 07:29:27;;;;;;;11.27;4.82;;;20.40;61.20;;;;;;5009430;28;20112;-77
2023/03/15 07:31:53;;;;;;;12.32;4.57;;;20.40;61.20;;;;;;5010570;28;20461;-77
2023/03/15 07:34:18;;;;;;;10.27;4.43;;;20.40;61.20;;;;;;5011189;28;20429;-77
2023/03/15 07:36:44;;;;;;;11.07;4.40;;;20.40;61.20;;;;;;5010370;28;20029;-77
2023/03/15 07:39:10;;;;;;;15.35;4.85;;;20.40;61.20;;;;;;5009409;28;20033;-76
2023/03/15 07:41:36;;;;;;;12.02;4.45;;;20.40;61.20;;;;;;5010376;28;20029;-77
2023/03/15 07:44:13;;;;;;;12.57;4.97;;;20.40;61.20;;;;;;4992491;28;20052;-77
2023/03/15 07:46:39;;;;;;;11.40;4.40;;;20.40;61.20;;;;;;5009297;28;20029;-78
2023/03/15 07:49:05;;;;;;;9.75;4.60;;;20.40;61.20;;;;;;4998156;28;20037;-78
2023/03/15 07:51:31;;;;;;;13.98;4.82;;;20.40;61.40;;;;;;5009897;28;20109;-78
2023/03/15 07:53:57;;;;;;;14.15;4.70;;;20.40;61.20;;;;;;5009005;28;20037;-78
2023/03/15 07:56:22;;;;;;;10.70;4.65;;;20.40;61.40;;;;;;4992632;28;20501;-78
2023/03/15 07:58:48;;;;;;;10.52;4.88;;;20.40;61.30;;;;;;5000599;28;20025;-78
2023/03/15 08:01:14;;;;;;;9.98;4.63;;;20.30;61.20;;;;;;4991573;28;20290;-78
2023/03/15 08:03:40;;;;;;;13.52;4.97;;;20.40;61.30;;;;;;4993605;28;20037;-78
2023/03/15 08:06:06;;;;;;;10.32;4.47;;;20.40;61.20;;;;;;5012492;28;20381;-77
2023/03/15 08:08:32;;;;;;;12.73;4.32;;;20.40;61.10;;;;;;5011388;28;20022;-76
2023/03/15 08:10:58;;;;;;;11.43;4.63;;;20.40;61.10;;;;;;5013542;28;20028;-77
2023/03/15 08:13:24;;;;;;;10.30;4.50;;;20.40;61.10;;;;;;4995061;28;20498;-77
2023/03/15 08:15:50;;;;;;;10.98;4.32;;;20.40;61.00;;;;;;5011328;28;20498;-77
2023/03/15 08:18:16;;;;;;;13.65;4.72;;;20.40;61.00;;;;;;5012416;28;20049;-77
2023/03/15 08:20:42;;;;;;;9.57;4.43;;;20.40;61.00;;;;;;5012599;28;20135;-77
2023/03/15 08:23:08;;;;;;;10.98;4.50;;;20.40;61.00;;;;;;5013960;28;20022;-76
2023/03/15 08:25:39;;;;;;;13.98;4.57;;;20.40;61.00;;;;;;5002418;28;20030;-76
2023/03/15 08:28:05;;;;;;;9.13;4.32;;;20.40;61.00;;;;;;5012915;28;20030;-77
2023/03/15 08:30:31;;;;;;;11.15;4.25;;;20.40;60.90;;;;;;4995600;28;20018;-74
2023/03/15 08:32:56;;;;;;;9.57;4.30;;;20.40;61.00;;;;;;5011858;28;20148;-75
2023/03/15 08:35:22;;;;;;;9.00;4.05;;;20.40;61.70;;;;;;4996243;28;20497;-74
2023/03/15 08:37:51;;;;;;;10.18;3.75;;;20.40;61.50;;;;;;5012354;28;20030;-75
2023/03/15 08:40:25;;;;;;;15.95;3.55;;;20.40;60.90;;;;;;4997832;28;20100;-74
2023/03/15 08:42:52;;;;;;;15.07;3.25;;;20.10;48.30;;;;;;4996520;28;20390;-75
2023/03/15 08:45:19;;;;;;;10.85;3.40;;;19.70;43.90;;;;;;5005138;28;20115;-74
2023/03/15 08:47:45;;;;;;;14.25;3.45;;;19.60;51.00;;;;;;4978892;28;20022;-74
2023/03/15 08:50:13;;;;;;;10.45;3.10;;;19.70;50.50;;;;;;5011188;28;20096;-75
2023/03/15 08:52:39;;;;;;;9.77;2.90;;;19.80;54.40;;;;;;5013478;28;20030;-75
2023/03/15 08:55:05;;;;;;;12.82;3.33;;;19.90;54.80;;;;;;5013409;28;20104;-75
2023/03/15 08:57:32;;;;;;;9.77;3.20;;;19.90;55.20;;;;;;5000813;28;20032;-74
2023/03/15 09:00:00;;;;;;;10.50;3.17;;;20.00;55.20;;;;;;4994015;28;20029;-77
2023/03/15 09:02:29;;;;;;;14.13;3.45;;;20.00;55.10;;;;;;4976122;28;20207;-74
2023/03/15 09:04:54;;;;;;;16.88;3.47;;;20.10;55.10;;;;;;5008575;28;20026;-75
2023/03/15 09:07:20;;;;;;;9.98;3.25;;;20.10;55.30;;;;;;5000566;28;20084;-77
2023/03/15 09:09:47;;;;;;;12.98;3.70;;;20.10;55.00;;;;;;5021939;28;20065;-78
2023/03/15 09:12:15;;;;;;;12.52;3.55;;;20.20;56.20;;;;;;5012591;28;20030;-77
2023/03/15 09:14:42;;;;;;;13.63;3.08;;;20.30;55.70;;;;;;4993418;28;20030;-76
2023/03/15 09:17:11;;;;;;;17.00;3.70;;;20.40;55.90;;;;;;4986551;28;20138;-77
2023/03/15 09:19:37;;;;;;;8.57;2.92;;;20.30;55.90;;;;;;4990915;28;20709;-78
2023/03/15 09:22:03;;;;;;;11.50;3.50;;;20.30;56.20;;;;;;4994791;28;20393;-77
2023/03/15 09:24:29;;;;;;;10.30;3.30;;;20.40;56.70;;;;;;4981469;28;20038;-78
2023/03/15 09:26:55;;;;;;;8.57;3.20;;;20.40;56.90;;;;;;5007461;28;20378;-79
2023/03/15 09:29:20;;;;;;;11.73;3.28;;;20.40;57.10;;;;;;4978119;28;20434;-80
2023/03/15 09:31:46;;;;;;;14.90;3.08;;;20.40;57.30;;;;;;5000338;28;20485;-78
2023/03/15 09:34:12;;;;;;;11.98;3.25;;;20.40;57.50;;;;;;4994680;28;20068;-79
2023/03/15 09:36:38;;;;;;;14.13;3.58;;;20.40;57.50;;;;;;5001778;28;20066;-79
2023/03/15 09:39:04;;;;;;;12.82;3.38;;;20.50;57.70;;;;;;4980918;28;20402;-79
2023/03/15 09:41:44;;;;;;;12.40;3.17;;;20.40;57.70;;;;;;5002798;28;20038;-78
2023/03/15 09:44:19;;;;;;;12.75;3.30;;;20.50;57.80;;;;;;4991203;28;20109;-77
2023/03/15 09:46:51;;;;;;;12.10;3.22;;;20.50;57.80;;;;;;4992539;28;20035;-79
2023/03/15 09:49:29;;;;;;;8.32;3.10;;;20.50;58.00;;;;;;5000281;28;20041;-78
2023/03/15 09:52:24;;;;;;;6.68;2.95;;;20.50;58.00;;;;;;5004354;28;20037;-79
2023/03/15 09:55:34;;;;;;;9.70;3.13;;;20.50;58.10;;;;;;5013940;23;20057;-74
2023/03/15 09:58:03;;;;;;;8.38;3.50;;;20.50;58.40;;;;;;4931958;28;20070;-74
2023/03/15 10:00:48;;;;;;;6.20;2.92;;;20.50;59.10;;;;;;4947656;28;20023;-75
2023/03/15 10:03:36;;;;;;;8.20;2.90;;;20.50;59.90;;;;;;4985462;28;20061;-74
2023/03/15 10:06:11;;;;;;;10.65;3.13;;;20.60;59.70;;;;;;5028295;28;20033;-76
2023/03/15 10:08:37;;;;;;;11.02;3.13;;;20.60;60.90;;;;;;5026088;28;20379;-74
2023/03/15 10:11:03;;;;;;;10.93;3.10;;;20.60;60.90;;;;;;5017777;28;20025;-75
2023/03/15 10:13:42;;;;;;;11.18;3.13;;;20.60;61.00;;;;;;5005253;28;20029;-74
2023/03/15 10:16:44;;;;;;;17.08;3.38;;;20.60;60.80;;;;;;5018755;28;20033;-74
2023/03/15 10:19:32;;;;;;;8.23;2.97;;;20.50;60.70;;;;;;5010389;28;20387;-72
2023/03/15 10:22:13;;;;;;;16.02;3.40;;;20.50;60.60;;;;;;5022700;28;20433;-74
2023/03/15 10:25:01;;;;;;;12.15;3.58;;;20.50;61.00;;;;;;5018462;28;20105;-74
2023/03/15 10:27:51;;;;;;;12.48;3.30;;;20.40;60.80;;;;;;5029769;28;20029;-76
2023/03/15 10:30:20;;;;;;;20.58;3.42;;;20.50;60.70;;;;;;5019079;28;20030;-76
2023/03/15 10:33:00;;;;;;;20.08;3.55;;;20.50;61.00;;;;;;5034432;28;20397;-74
2023/03/15 10:35:27;;;;;;;16.27;3.38;;;20.50;61.00;;;;;;5020366;28;20040;-73
2023/03/15 10:37:53;;;;;;;13.77;3.28;;;20.50;61.20;;;;;;5025713;28;20029;-75
2023/03/15 10:40:50;;;;;;;13.52;2.92;;;20.50;60.90;;;;;;5027333;28;20938;-73
2023/03/15 10:43:28;;;;;;;13.60;3.33;;;20.60;61.20;;;;;;4996543;28;20502;-75
2023/03/15 10:45:58;;;;;;;11.25;3.10;;;20.60;61.20;;;;;;5008132;28;20040;-76
2023/03/15 10:48:31;;;;;;;8.07;2.63;;;20.60;61.10;;;;;;5028724;28;20045;-73
2023/03/15 10:51:04;;;;;;;8.82;2.85;;;20.60;61.50;;;;;;5016823;28;20029;-77
2023/03/15 10:53:30;;;;;;;11.07;2.92;;;20.60;60.80;;;;;;5006522;28;20025;-74
2023/03/15 10:56:03;;;;;;;11.60;2.70;;;20.50;60.60;;;;;;5027850;28;20031;-77
2023/03/15 10:58:39;;;;;;;9.63;2.80;;;20.60;59.80;;;;;;4998785;28;20043;-74
2023/03/15 11:01:23;;;;;;;9.35;2.63;;;20.50;59.60;;;;;;5018065;28;20021;-75
2023/03/15 11:04:13;;;;;;;11.60;2.80;;;20.50;59.10;;;;;;5019814;28;20021;-73
2023/03/15 11:06:58;;;;;;;13.40;2.95;;;20.50;59.10;;;;;;5016829;28;20029;-74
2023/03/15 11:09:25;;;;;;;9.45;2.97;;;20.40;59.60;;;;;;5006173;28;20873;-75
2023/03/15 11:12:20;;;;;;;15.20;3.30;;;20.50;59.70;;;;;;5017417;28;20022;-75
2023/03/15 11:14:49;;;;;;;9.25;2.55;;;20.50;60.10;;;;;;5001947;28;20044;-72
2023/03/15 11:17:27;;;;;;;18.20;3.35;;;20.50;60.00;;;;;;5018492;28;20018;-72
2023/03/15 11:20:08;;;;;;;10.63;2.80;;;20.50;60.50;;;;;;5001034;28;20052;-74
2023/03/15 11:22:34;;;;;;;10.38;2.97;;;20.50;60.60;;;;;;5029290;28;20032;-73
2023/03/15 11:25:00;;;;;;;15.50;3.10;;;20.60;60.30;;;;;;5027116;28;20025;-73
2023/03/15 11:27:28;;;;;;;13.70;3.75;;;20.60;60.90;;;;;;4992902;28;20389;-73
2023/03/15 11:29:58;;;;;;;13.55;3.33;;;20.60;60.60;;;;;;5027606;28;20022;-73
2023/03/15 11:32:27;;;;;;;13.38;3.40;;;20.70;61.60;;;;;;5025503;28;20033;-74
2023/03/15 11:35:07;;;;;;;12.75;3.25;;;20.70;61.30;;;;;;5027864;28;20111;-74
2023/03/15 11:37:41;;;;;;;10.05;3.17;;;20.70;61.40;;;;;;5022571;28;20030;-74
2023/03/15 11:40:28;;;;;;;15.60;3.45;;;20.70;60.80;;;;;;5033032;28;20030;-72
2023/03/15 11:43:02;;;;;;;10.02;2.92;;;20.70;61.30;;;;;;5013955;28;20030;-73
2023/03/15 11:45:49;;;;;;;11.88;3.60;;;20.70;61.00;;;;;;5031707;28;20431;-73
2023/03/15 11:49:15;;;;;;;11.15;3.10;;;20.70;61.00;;;;;;5017503;28;20025;-72
2023/03/15 11:51:41;;;;;;;13.93;3.13;;;20.70;60.90;;;;;;5029415;28;20037;-72
2023/03/15 11:54:18;;;;;;;11.05;3.17;;;20.70;61.40;;;;;;5032200;28;20096;-73
2023/03/15 11:56:56;;;;;;;9.80;3.33;;;20.70;61.70;;;;;;5033927;28;20036;-72
2023/03/15 11:59:34;;;;;;;10.55;3.20;;;20.70;61.50;;;;;;5033488;28;20381;-73
2023/03/15 12:02:05;;;;;;;14.05;4.00;;;20.70;62.00;;;;;;5036776;28;20039;-74
2023/03/15 12:04:31;;;;;;;8.25;2.80;;;20.70;62.00;;;;;;5030666;28;20052;-73
2023/03/15 12:07:05;;;;;;;13.23;3.58;;;20.70;62.20;;;;;;5012012;28;20466;-72
2023/03/15 12:09:30;;;;;;;12.95;3.22;;;20.70;62.00;;;;;;5007177;28;20025;-72
2023/03/15 12:12:03;;;;;;;8.68;3.20;;;20.60;62.10;;;;;;4998984;28;20021;-72
2023/03/15 12:14:34;;;;;;;9.52;2.92;;;20.70;62.10;;;;;;5015694;28;20025;-72
2023/03/15 12:17:28;;;;;;;18.35;3.20;;;20.60;62.20;;;;;;5033956;28;20033;-72
2023/03/15 12:20:13;;;;;;;12.82;3.20;;;20.60;62.00;;;;;;5034430;28;20034;-72
2023/03/15 12:22:51;;;;;;;12.10;3.05;;;20.60;62.10;;;;;;5018077;28;20045;-72
2023/03/15 12:25:37;;;;;;;6.63;2.70;;;20.60;62.00;;;;;;5033376;28;20029;-72
2023/03/15 12:28:09;;;;;;;10.13;2.72;;;20.60;62.00;;;;;;5033985;28;20026;-72
2023/03/15 12:30:40;;;;;;;9.70;3.55;;;20.60;61.90;;;;;;5034197;28;20254;-72
2023/03/15 12:33:19;;;;;;;9.15;2.92;;;20.60;61.90;;;;;;5033386;28;20049;-72
2023/03/15 12:35:46;;;;;;;7.93;2.70;;;20.60;62.00;;;;;;5016694;28;20037;-72
2023/03/15 12:38:16;;;;;;;12.48;3.03;;;20.60;61.90;;;;;;5034102;28;20040;-72
2023/03/15 12:40:54;;;;;;;8.32;2.70;;;20.60;61.90;;;;;;5034412;28;20067;-72
2023/03/15 12:43:41;;;;;;;7.07;2.80;;;20.50;61.90;;;;;;5016772;28;20031;-73
2023/03/15 12:46:42;;;;;;;9.32;2.88;;;20.50;61.80;;;;;;5033648;28;20029;-72
2023/03/15 12:49:23;;;;;;;8.15;2.80;;;20.50;61.90;;;;;;5033607;28;20025;-72
2023/03/15 12:52:12;;;;;;;7.55;2.72;;;20.50;61.80;;;;;;5033012;28;20033;-72
2023/03/15 12:54:56;;;;;;;12.90;3.10;;;20.50;61.80;;;;;;5032071;28;20037;-72
2023/03/15 12:57:27;;;;;;;9.55;2.92;;;20.50;61.80;;;;;;5033431;28;20025;-72
2023/03/15 12:59:54;;;;;;;9.07;3.45;;;20.50;62.00;;;;;;5032014;28;20462;-72
2023/03/15 13:02:33;;;;;;;7.07;2.85;;;20.50;61.90;;;;;;5033503;28;20030;-72
2023/03/15 13:05:18;;;;;;;11.50;3.17;;;20.50;62.00;;;;;;5015682;28;20447;-72